createdAt,value
2018-10-09T00:00:01.623Z,64.73
2018-10-09T00:02:31.177Z,65.10
2018-10-09T00:05:00.714Z,65.12
2018-10-09T00:07:30.260Z,65.08
2018-10-09T00:09:59.750Z,65.16
2018-10-09T00:12:29.306Z,65.11
2018-10-09T00:14:58.917Z,65.45
2018-10-09T00:17:28.460Z,65.45
2018-10-09T00:19:57.999Z,65.13
2018-10-09T00:22:27.665Z,65.26
2018-10-09T00:24:57.243Z,65.34
2018-10-09T00:27:26.783Z,65.23
2018-10-09T00:29:56.296Z,66.09
2018-10-09T00:32:25.836Z,66.27
2018-10-09T00:34:55.390Z,66.35
2018-10-09T00:37:24.897Z,66.61
2018-10-09T00:39:54.466Z,65.98
2018-10-09T00:42:23.961Z,66.90
2018-10-09T00:44:53.567Z,66.18
2018-10-09T00:47:23.168Z,66.44
2018-10-09T00:49:52.747Z,66.49
2018-10-09T00:52:22.473Z,66.14
2018-10-09T00:54:52.091Z,66.46
2018-10-09T00:57:21.638Z,65.67
2018-10-09T00:59:51.239Z,65.90
2018-10-09T01:02:20.739Z,65.94
2018-10-09T01:04:50.331Z,66.01
2018-10-09T01:07:19.960Z,67.14
2018-10-09T01:09:49.470Z,66.73
2018-10-09T01:12:18.971Z,66.81
2018-10-09T01:14:48.486Z,66.47
2018-10-09T01:17:18.036Z,66.73
2018-10-09T01:19:47.594Z,66.78
2018-10-09T01:22:17.108Z,67.24
2018-10-09T01:24:46.669Z,67.29
2018-10-09T01:27:16.220Z,67.28
2018-10-09T01:29:45.787Z,67.48
2018-10-09T01:32:15.331Z,67.62
2018-10-09T01:34:44.859Z,66.71
2018-10-09T01:37:14.424Z,67.18
2018-10-09T01:39:43.961Z,67.76
2018-10-09T01:42:13.522Z,67.50
2018-10-09T01:44:43.063Z,68.34
2018-10-09T01:47:12.638Z,68.19
2018-10-09T01:49:42.190Z,69.38
2018-10-09T01:52:11.736Z,68.82
2018-10-09T01:54:41.296Z,69.57
2018-10-09T01:57:10.794Z,69.10
2018-10-09T01:59:40.344Z,68.92
2018-10-09T02:02:09.851Z,68.88
2018-10-09T02:04:39.406Z,68.69
2018-10-09T02:07:08.929Z,68.88
2018-10-09T02:09:38.474Z,68.39
2018-10-09T02:12:08.001Z,68.40
2018-10-09T02:14:37.541Z,67.94
2018-10-09T02:17:07.170Z,68.27
2018-10-09T02:19:36.742Z,68.09
2018-10-09T02:22:06.441Z,67.83
2018-10-09T02:24:35.978Z,67.78
2018-10-09T02:27:05.584Z,68.26
2018-10-09T02:29:35.166Z,68.27
2018-10-09T02:32:04.766Z,68.10
2018-10-09T02:34:34.335Z,68.04
2018-10-09T02:37:03.880Z,67.49
2018-10-09T02:39:33.392Z,67.79
2018-10-09T02:42:02.927Z,67.33
2018-10-09T02:44:32.479Z,67.46
2018-10-09T02:47:02.082Z,67.51
2018-10-09T02:49:31.635Z,68.09
2018-10-09T02:52:01.206Z,68.48
2018-10-09T02:54:30.781Z,68.83
2018-10-09T02:57:00.287Z,68.54
2018-10-09T02:59:29.866Z,68.96
2018-10-09T03:01:59.381Z,68.65
2018-10-09T03:04:28.929Z,68.82
2018-10-09T03:06:58.438Z,69.10
2018-10-09T03:09:27.980Z,68.52
2018-10-09T03:11:57.562Z,68.54
2018-10-09T03:14:27.057Z,68.44
2018-10-09T03:16:56.564Z,68.92
2018-10-09T03:19:26.118Z,68.01
2018-10-09T03:21:55.621Z,67.48
2018-10-09T03:24:25.238Z,67.53
2018-10-09T03:26:54.791Z,67.60
2018-10-09T03:29:24.323Z,67.52
2018-10-09T03:31:53.862Z,67.01
2018-10-09T03:34:23.472Z,67.70
2018-10-09T03:36:53.019Z,67.23
2018-10-09T03:39:22.564Z,67.98
2018-10-09T03:41:52.115Z,67.84
2018-10-09T03:44:21.627Z,68.37
2018-10-09T03:46:51.238Z,68.19
2018-10-09T03:49:20.737Z,68.90
2018-10-09T03:51:50.286Z,68.93
2018-10-09T03:54:19.834Z,68.54
2018-10-09T03:56:49.327Z,68.81
2018-10-09T03:59:18.854Z,68.67
2018-10-09T04:01:48.430Z,68.81
2018-10-09T04:04:18.022Z,68.75
2018-10-09T04:06:47.556Z,68.51
2018-10-09T04:09:17.117Z,68.32
2018-10-09T04:11:46.711Z,68.79
2018-10-09T04:14:16.273Z,68.84
2018-10-09T04:16:45.853Z,68.67
2018-10-09T04:19:15.390Z,68.79
2018-10-09T04:21:44.954Z,68.22
2018-10-09T04:24:14.523Z,68.97
2018-10-09T04:26:44.078Z,68.82
2018-10-09T04:29:13.643Z,68.92
2018-10-09T04:31:43.150Z,69.40
2018-10-09T04:34:12.703Z,69.44
2018-10-09T04:36:42.202Z,69.13
2018-10-09T04:39:11.787Z,68.99
2018-10-09T04:41:41.302Z,69.37
2018-10-09T04:44:11.041Z,69.46
2018-10-09T04:46:40.626Z,69.47
2018-10-09T04:49:10.167Z,69.76
2018-10-09T04:51:39.650Z,69.73
2018-10-09T04:54:09.199Z,70.16
2018-10-09T04:56:38.711Z,70.28
2018-10-09T04:59:08.286Z,69.81
2018-10-09T05:01:37.886Z,70.30
2018-10-09T05:04:07.502Z,70.29
2018-10-09T05:06:37.137Z,69.71
2018-10-09T05:09:09.705Z,70.21
2018-10-09T05:11:39.253Z,69.87
2018-10-09T05:14:08.967Z,69.88
2018-10-09T05:16:39.387Z,69.71
2018-10-09T05:19:08.939Z,69.29
2018-10-09T05:21:38.510Z,69.10
2018-10-09T05:24:08.183Z,68.54
2018-10-09T05:26:38.198Z,68.08
2018-10-09T05:29:07.825Z,68.04
2018-10-09T05:31:37.413Z,66.90
2018-10-09T05:34:07.610Z,66.02
2018-10-09T05:36:37.240Z,65.68
2018-10-09T05:39:08.478Z,64.92
2018-10-09T05:41:38.354Z,64.72
2018-10-09T05:44:08.046Z,63.82
2018-10-09T05:46:37.714Z,63.75
2018-10-09T05:49:07.324Z,62.50
2018-10-09T05:51:36.881Z,61.95
2018-10-09T05:54:06.459Z,62.05
2018-10-09T05:56:36.011Z,61.84
2018-10-09T05:59:05.661Z,61.15
2018-10-09T06:01:35.230Z,60.95
2018-10-09T06:04:05.023Z,59.55
2018-10-09T06:06:34.646Z,60.31
2018-10-09T06:09:04.805Z,59.04
2018-10-09T06:11:34.475Z,58.79
2018-10-09T06:14:04.359Z,58.98
2018-10-09T06:16:33.931Z,58.73
2018-10-09T06:19:03.446Z,58.59
2018-10-09T06:21:33.022Z,58.88
2018-10-09T06:24:02.746Z,57.70
2018-10-09T06:26:33.521Z,57.63
2018-10-09T06:29:03.085Z,57.25
2018-10-09T06:31:32.655Z,55.95
2018-10-09T06:34:02.308Z,55.85
2018-10-09T06:36:31.834Z,55.05
2018-10-09T06:39:02.043Z,55.51
2018-10-09T06:41:31.778Z,55.33
2018-10-09T06:44:01.306Z,55.28
2018-10-09T06:46:30.932Z,54.78
2018-10-09T06:49:00.478Z,54.71
2018-10-09T06:51:30.076Z,55.33
2018-10-09T06:53:59.931Z,55.08
2018-10-09T06:56:29.349Z,54.92
2018-10-09T06:58:59.162Z,55.14
2018-10-09T07:01:28.722Z,54.89
2018-10-09T07:03:58.277Z,54.60
2018-10-09T07:06:27.844Z,54.96
2018-10-09T07:08:57.601Z,55.01
2018-10-09T07:11:27.202Z,55.63
2018-10-09T07:13:56.811Z,55.30
2018-10-09T07:16:26.359Z,55.28
2018-10-09T07:18:55.864Z,55.32
2018-10-09T07:21:25.452Z,54.59
2018-10-09T07:23:54.994Z,54.84
2018-10-09T07:26:24.632Z,54.42
2018-10-09T07:28:54.190Z,54.93
2018-10-09T07:31:23.843Z,55.02
2018-10-09T07:33:53.407Z,55.16
2018-10-09T07:36:22.983Z,55.11
2018-10-09T07:38:52.511Z,55.01
2018-10-09T07:41:22.137Z,53.90
2018-10-09T07:43:51.741Z,53.67
2018-10-09T07:46:21.243Z,53.07
2018-10-09T07:48:50.773Z,53.77
2018-10-09T07:51:20.682Z,53.59
2018-10-09T07:53:50.175Z,52.96
2018-10-09T07:56:19.744Z,52.98
2018-10-09T07:58:49.369Z,52.17
2018-10-09T08:01:18.921Z,52.10
2018-10-09T08:03:48.446Z,51.54
2018-10-09T08:06:17.983Z,51.95
2018-10-09T08:08:47.523Z,52.33
2018-10-09T08:11:17.414Z,52.22
2018-10-09T08:13:46.993Z,52.11
2018-10-09T08:16:16.579Z,51.15
2018-10-09T08:19:18.569Z,51.48
2018-10-09T08:21:48.279Z,51.07
2018-10-09T08:24:17.833Z,51.11
2018-10-09T08:26:47.382Z,50.66
2018-10-09T08:29:16.862Z,51.14
2018-10-09T08:31:46.402Z,50.95
2018-10-09T08:34:15.922Z,50.72
2018-10-09T08:36:45.550Z,49.99
2018-10-09T08:39:15.080Z,50.37
2018-10-09T08:41:44.646Z,50.20
2018-10-09T08:44:14.134Z,49.36
2018-10-09T08:46:43.703Z,49.29
2018-10-09T08:49:13.447Z,49.35
2018-10-09T08:51:43.027Z,49.05
2018-10-09T08:54:12.654Z,48.36
2018-10-09T08:56:42.176Z,48.43
2018-10-09T08:59:12.066Z,48.15
2018-10-09T09:01:41.575Z,47.33
2018-10-09T09:04:11.137Z,46.93
2018-10-09T09:06:40.756Z,47.95
2018-10-09T09:09:11.594Z,48.15
2018-10-09T09:11:41.212Z,47.38
2018-10-09T09:14:10.823Z,44.83
2018-10-09T09:16:40.295Z,41.31
2018-10-09T09:19:09.790Z,42.33
2018-10-09T09:21:39.333Z,42.28
2018-10-09T09:24:08.962Z,42.37
2018-10-09T09:26:38.799Z,39.20
2018-10-09T09:29:08.222Z,39.30
2018-10-09T09:31:37.810Z,38.37
2018-10-09T09:34:07.355Z,38.92
2018-10-09T09:36:36.938Z,39.61
2018-10-09T09:39:08.307Z,40.94
2018-10-09T09:41:38.279Z,40.67
2018-10-09T09:44:07.919Z,38.52
2018-10-09T09:46:37.454Z,39.14
2018-10-09T09:49:07.303Z,39.46
2018-10-09T09:51:36.844Z,36.67
2018-10-09T09:54:06.499Z,37.99
2018-10-09T09:56:36.162Z,37.95
2018-10-09T09:59:05.842Z,37.21
2018-10-09T10:01:42.021Z,36.43
2018-10-09T10:04:12.435Z,35.82
2018-10-09T10:06:42.380Z,35.30
2018-10-09T10:09:12.503Z,35.51
2018-10-09T10:11:42.005Z,35.12
2018-10-09T10:14:11.556Z,35.68
2018-10-09T10:16:41.127Z,36.18
2018-10-09T10:19:10.722Z,35.41
2018-10-09T10:21:40.243Z,35.73
2018-10-09T10:24:09.795Z,35.74
2018-10-09T10:26:39.334Z,36.07
2018-10-09T10:29:08.919Z,36.00
2018-10-09T10:31:38.499Z,36.14
2018-10-09T10:34:08.103Z,36.41
2018-10-09T10:36:37.680Z,36.61
2018-10-09T10:39:10.111Z,36.46
2018-10-09T10:41:39.684Z,36.83
2018-10-09T10:44:09.214Z,37.27
2018-10-09T10:46:39.522Z,37.05
2018-10-09T10:49:10.600Z,37.68
2018-10-09T10:51:40.136Z,37.24
2018-10-09T10:54:09.711Z,37.04
2018-10-09T10:56:39.246Z,37.30
2018-10-09T10:59:08.874Z,36.95
2018-10-09T11:01:38.401Z,37.52
2018-10-09T11:04:07.975Z,37.15
2018-10-09T11:06:37.559Z,37.38
2018-10-09T11:09:09.571Z,37.27
2018-10-09T11:11:39.118Z,37.20
2018-10-09T11:14:08.655Z,37.69
2018-10-09T11:16:38.448Z,37.44
2018-10-09T11:19:08.029Z,38.14
2018-10-09T11:21:37.606Z,37.54
2018-10-09T11:24:08.807Z,37.65
2018-10-09T11:26:38.366Z,37.06
2018-10-09T11:29:07.914Z,37.58
2018-10-09T11:31:37.441Z,37.40
2018-10-09T11:34:07.675Z,37.18
2018-10-09T11:36:37.272Z,37.17
2018-10-09T11:39:08.173Z,37.44
2018-10-09T11:41:38.051Z,36.98
2018-10-09T11:44:07.840Z,36.85
2018-10-09T11:46:37.803Z,37.41
2018-10-09T11:49:07.820Z,37.36
2018-10-09T11:51:37.376Z,37.84
2018-10-09T11:54:07.070Z,37.39
2018-10-09T11:56:36.798Z,37.27
2018-10-09T11:59:06.513Z,37.06
2018-10-09T12:01:36.107Z,36.79
2018-10-09T12:04:05.698Z,36.66
2018-10-09T12:06:35.306Z,36.72
2018-10-09T12:09:06.479Z,36.53
2018-10-09T12:11:36.008Z,36.83
2018-10-09T12:14:05.584Z,36.40
2018-10-09T12:16:35.186Z,37.00
2018-10-09T12:19:04.744Z,37.31
2018-10-09T12:21:34.418Z,36.90
2018-10-09T12:24:03.948Z,36.64
2018-10-09T12:26:33.568Z,36.85
2018-10-09T12:29:03.355Z,36.17
2018-10-09T12:31:33.188Z,36.86
2018-10-09T12:34:02.754Z,36.95
2018-10-09T12:36:32.298Z,37.08
2018-10-09T12:39:01.991Z,37.56
2018-10-09T12:41:31.538Z,37.48
2018-10-09T12:44:01.142Z,36.40
2018-10-09T12:46:30.690Z,36.86
2018-10-09T12:51:32.126Z,36.78
2018-10-09T12:54:01.816Z,36.95
2018-10-09T12:56:31.425Z,36.03
2018-10-09T12:59:01.063Z,36.14
2018-10-09T13:01:30.698Z,35.72
2018-10-09T13:04:00.199Z,35.64
2018-10-09T13:06:29.791Z,35.95
2018-10-09T13:08:59.606Z,36.42
2018-10-09T13:11:29.186Z,36.46
2018-10-09T13:13:58.724Z,36.82
2018-10-09T13:16:28.254Z,36.31
2018-10-09T13:18:57.852Z,35.29
2018-10-09T13:21:27.522Z,35.94
2018-10-09T13:23:56.968Z,36.10
2018-10-09T13:26:26.554Z,36.40
2018-10-09T13:28:56.278Z,36.28
2018-10-09T13:31:25.850Z,35.97
2018-10-09T13:33:55.416Z,35.49
2018-10-09T13:36:24.980Z,36.75
2018-10-09T13:38:54.537Z,37.12
2018-10-09T13:41:24.079Z,36.86
2018-10-09T13:43:53.757Z,36.22
2018-10-09T13:46:23.355Z,36.37
2018-10-09T13:48:52.888Z,36.40
2018-10-09T13:51:22.464Z,36.82
2018-10-09T13:53:52.062Z,36.27
2018-10-09T13:56:21.610Z,36.51
2018-10-09T13:58:51.150Z,36.43
2018-10-09T14:01:20.722Z,36.16
2018-10-09T14:03:50.276Z,36.44
2018-10-09T14:06:19.928Z,35.28
2018-10-09T14:08:49.750Z,35.24
2018-10-09T14:11:19.250Z,35.35
2018-10-09T14:13:48.875Z,35.89
2018-10-09T14:16:18.530Z,36.65
2018-10-09T14:18:48.193Z,36.63
2018-10-09T14:21:17.711Z,36.72
2018-10-09T14:23:47.355Z,36.43
2018-10-09T14:26:17.062Z,36.44
2018-10-09T14:28:46.621Z,36.25
2018-10-09T14:31:16.298Z,36.06
2018-10-09T14:33:45.935Z,35.20
2018-10-09T14:36:15.482Z,35.58
2018-10-09T14:38:45.141Z,35.63
2018-10-09T14:41:14.705Z,35.96
2018-10-09T14:43:44.267Z,36.01
2018-10-09T14:46:13.828Z,35.75
2018-10-09T14:48:43.494Z,35.62
2018-10-09T14:51:13.030Z,36.77
2018-10-09T14:53:42.599Z,37.30
2018-10-09T14:56:12.103Z,37.50
2018-10-09T14:58:41.686Z,37.24
2018-10-09T15:01:11.214Z,37.62
2018-10-09T15:03:40.800Z,38.00
2018-10-09T15:06:10.322Z,38.46
2018-10-09T15:08:39.908Z,38.64
2018-10-09T15:11:09.498Z,38.75
2018-10-09T15:13:39.039Z,38.62
2018-10-09T15:16:08.610Z,38.91
2018-10-09T15:18:38.162Z,39.57
2018-10-09T15:21:08.350Z,39.37
2018-10-09T15:23:37.854Z,39.39
2018-10-09T15:26:08.046Z,40.36
2018-10-09T15:28:37.558Z,40.53
2018-10-09T15:31:07.220Z,40.36
2018-10-09T15:33:36.741Z,40.08
2018-10-09T15:36:06.325Z,39.70
2018-10-09T15:38:35.919Z,40.17
2018-10-09T15:41:05.466Z,40.43
2018-10-09T15:43:35.023Z,40.78
2018-10-09T15:46:04.663Z,41.05
2018-10-09T15:48:34.211Z,41.93
2018-10-09T15:51:03.824Z,42.27
2018-10-09T15:53:33.353Z,42.60
2018-10-09T15:56:02.945Z,42.23
2018-10-09T15:58:32.568Z,42.35
2018-10-09T16:01:02.138Z,43.78
2018-10-09T16:03:31.651Z,44.19
2018-10-09T16:06:01.243Z,44.34
2018-10-09T16:08:30.752Z,45.04
2018-10-09T16:11:00.376Z,45.54
2018-10-09T16:13:29.923Z,45.12
2018-10-09T16:15:59.511Z,45.03
2018-10-09T16:18:29.026Z,44.85
2018-10-09T16:20:58.563Z,45.50
2018-10-09T16:23:28.062Z,45.71
2018-10-09T16:25:57.609Z,46.67
2018-10-09T16:28:27.147Z,46.72
2018-10-09T16:30:56.709Z,47.51
2018-10-09T16:33:26.254Z,47.53
2018-10-09T16:35:55.761Z,48.74
2018-10-09T16:38:25.482Z,48.42
2018-10-09T16:40:54.994Z,47.85
2018-10-09T16:43:24.601Z,49.23
2018-10-09T16:45:54.159Z,49.24
2018-10-09T16:48:23.658Z,49.13
2018-10-09T16:50:53.194Z,48.78
2018-10-09T16:53:22.762Z,49.28
2018-10-09T16:55:52.340Z,49.87
2018-10-09T16:58:21.846Z,49.08
2018-10-09T17:00:51.482Z,50.18
2018-10-09T17:03:20.996Z,49.14
2018-10-09T17:05:50.563Z,49.92
2018-10-09T17:08:20.088Z,50.79
2018-10-09T17:10:49.649Z,50.19
2018-10-09T17:13:19.186Z,51.26
2018-10-09T17:15:48.771Z,51.34
2018-10-09T17:18:18.409Z,51.43
2018-10-09T17:20:47.954Z,50.98
2018-10-09T17:23:17.514Z,50.57
2018-10-09T17:25:47.083Z,51.48
2018-10-09T17:28:16.688Z,51.85
2018-10-09T17:30:46.243Z,51.73
2018-10-09T17:33:15.892Z,51.87
2018-10-09T17:35:45.450Z,52.10
2018-10-09T17:38:15.028Z,52.18
2018-10-09T17:40:44.572Z,52.25
2018-10-09T17:43:14.154Z,53.03
2018-10-09T17:45:43.710Z,52.92
2018-10-09T17:48:13.290Z,52.41
2018-10-09T17:50:42.899Z,52.60
2018-10-09T17:53:12.406Z,52.97
2018-10-09T17:55:41.942Z,53.17
2018-10-09T17:58:11.491Z,52.58
2018-10-09T18:00:41.171Z,52.86
2018-10-09T18:03:10.753Z,52.69
2018-10-09T18:05:40.495Z,52.62
2018-10-09T18:08:10.055Z,52.59
2018-10-09T18:10:39.562Z,53.26
2018-10-09T18:13:09.168Z,53.65
2018-10-09T18:15:38.659Z,54.21
2018-10-09T18:18:08.184Z,54.91
2018-10-09T18:20:37.817Z,54.64
2018-10-09T18:23:07.408Z,54.92
2018-10-09T18:25:36.930Z,55.36
2018-10-09T18:28:06.760Z,56.15
2018-10-09T18:30:36.274Z,56.48
2018-10-09T18:33:06.013Z,56.17
2018-10-09T18:35:35.591Z,56.44
2018-10-09T18:38:05.150Z,56.81
2018-10-09T18:40:34.713Z,57.22
2018-10-09T18:43:04.302Z,57.08
2018-10-09T18:45:33.825Z,57.48
2018-10-09T18:48:03.420Z,57.49
2018-10-09T18:50:32.979Z,57.53
2018-10-09T18:53:02.474Z,57.83
2018-10-09T18:55:32.352Z,57.65
2018-10-09T18:58:01.900Z,57.96
2018-10-09T19:00:31.474Z,58.15
2018-10-09T19:03:01.023Z,57.56
2018-10-09T19:05:30.666Z,57.58
2018-10-09T19:08:00.226Z,58.21
2018-10-09T19:10:29.778Z,57.33
2018-10-09T19:12:59.318Z,57.79
2018-10-09T19:15:28.851Z,57.85
2018-10-09T19:17:58.475Z,58.50
2018-10-09T19:20:27.987Z,57.78
2018-10-09T19:22:57.526Z,58.01
2018-10-09T19:25:27.091Z,58.61
2018-10-09T19:27:56.711Z,58.54
2018-10-09T19:30:26.326Z,58.81
2018-10-09T19:32:55.881Z,58.80
2018-10-09T19:35:25.376Z,59.02
2018-10-09T19:37:54.926Z,59.38
2018-10-09T19:40:24.434Z,59.09
2018-10-09T19:42:54.014Z,59.40
2018-10-09T19:45:23.560Z,60.04
2018-10-09T19:47:53.099Z,59.42
2018-10-09T19:50:22.615Z,59.33
2018-10-09T19:52:52.142Z,59.55
2018-10-09T19:55:21.707Z,59.00
2018-10-09T19:57:51.226Z,59.85
2018-10-09T20:00:20.807Z,59.80
2018-10-09T20:02:50.324Z,59.75
2018-10-09T20:05:19.892Z,59.41
2018-10-09T20:07:49.474Z,59.66
2018-10-09T20:10:18.989Z,60.40
2018-10-09T20:12:48.618Z,60.19
2018-10-09T20:15:18.167Z,59.97
2018-10-09T20:17:47.763Z,59.83
2018-10-09T20:20:17.283Z,60.21
2018-10-09T20:22:46.975Z,60.77
2018-10-09T20:25:16.534Z,60.21
2018-10-09T20:27:46.151Z,60.54
2018-10-09T20:30:15.721Z,60.48
2018-10-09T20:32:45.218Z,60.85
2018-10-09T20:35:14.810Z,60.34
2018-10-09T20:37:44.360Z,61.07
2018-10-09T20:40:13.902Z,61.27
2018-10-09T20:42:43.403Z,61.22
2018-10-09T20:45:12.958Z,61.57
2018-10-09T20:47:43.292Z,61.59
2018-10-09T20:50:13.642Z,61.69
2018-10-09T20:52:43.315Z,61.16
2018-10-09T20:55:12.825Z,61.87
2018-10-09T20:57:42.323Z,61.53
2018-10-09T21:00:11.872Z,62.19
2018-10-09T21:02:41.426Z,61.72
2018-10-09T21:05:10.948Z,61.54
2018-10-09T21:07:40.470Z,61.98
2018-10-09T21:10:10.052Z,62.00
2018-10-09T21:12:39.602Z,62.69
2018-10-09T21:15:09.106Z,63.57
2018-10-09T21:17:38.716Z,62.87
2018-10-09T21:20:08.199Z,62.57
2018-10-09T21:22:37.848Z,63.41
2018-10-09T21:25:07.454Z,62.83
2018-10-09T21:27:37.043Z,63.40
2018-10-09T21:30:06.675Z,63.12
2018-10-09T21:32:36.590Z,63.53
2018-10-09T21:35:06.266Z,63.43
2018-10-09T21:37:35.819Z,63.29
2018-10-09T21:40:05.598Z,63.48
2018-10-09T21:42:35.106Z,63.64
2018-10-09T21:45:04.694Z,63.59
2018-10-09T21:47:34.203Z,63.53
2018-10-09T21:50:03.770Z,63.83
2018-10-09T21:52:33.299Z,63.73
2018-10-09T21:55:02.835Z,62.82
2018-10-09T21:57:32.422Z,63.18
2018-10-09T22:00:02.107Z,63.26
2018-10-09T22:02:31.727Z,64.02
2018-10-09T22:05:01.302Z,63.59
2018-10-09T22:07:30.866Z,63.35
2018-10-09T22:10:00.568Z,63.69
2018-10-09T22:12:30.087Z,63.41
2018-10-09T22:14:59.649Z,63.12
2018-10-09T22:17:29.834Z,62.61
2018-10-09T22:19:59.910Z,62.70
2018-10-09T22:22:29.456Z,62.17
2018-10-09T22:24:58.979Z,62.71
2018-10-09T22:27:28.511Z,62.64
2018-10-09T22:29:58.068Z,62.08
2018-10-09T22:32:27.626Z,62.67
2018-10-09T22:34:57.198Z,62.96
2018-10-09T22:37:26.724Z,62.92
2018-10-09T22:39:56.297Z,62.99
2018-10-09T22:42:25.830Z,62.70
2018-10-09T22:44:55.383Z,62.72
2018-10-09T22:47:24.886Z,62.52
2018-10-09T22:49:54.426Z,62.89
2018-10-09T22:52:23.971Z,62.79
2018-10-09T22:54:53.478Z,61.96
2018-10-09T22:57:23.035Z,62.38
2018-10-09T22:59:52.597Z,62.63
2018-10-09T23:02:22.132Z,62.14
2018-10-09T23:04:51.666Z,62.06
2018-10-09T23:07:21.222Z,62.08
2018-10-09T23:09:50.761Z,61.68
2018-10-09T23:12:20.282Z,62.22
2018-10-09T23:14:49.808Z,62.28
2018-10-09T23:17:19.355Z,61.93
2018-10-09T23:19:48.894Z,62.25
2018-10-09T23:22:18.430Z,62.35
2018-10-09T23:24:47.962Z,62.23
2018-10-09T23:27:17.562Z,62.56
2018-10-09T23:29:47.155Z,62.48
2018-10-09T23:32:16.734Z,62.52
2018-10-09T23:34:46.236Z,62.28
2018-10-09T23:37:15.815Z,62.53
2018-10-09T23:39:45.351Z,62.26
2018-10-09T23:42:14.960Z,62.54
2018-10-09T23:44:44.471Z,62.76
2018-10-09T23:47:14.026Z,62.26
2018-10-09T23:49:43.591Z,62.32
2018-10-09T23:52:13.139Z,62.63
2018-10-09T23:54:42.646Z,63.60
2018-10-09T23:57:12.223Z,63.61
2018-10-09T23:59:41.738Z,63.24
